sensor_id;sensor_type;location;lat;lon;timestamp;pressure;altitude;pressure_sealevel;temperature;humidity
69971;BME280;57301;50.328;8.542;2023-06-10T00:01:50;98326.56;;;13.47;90.24
69971;BME280;57301;50.328;8.542;2023-06-10T00:04:17;98329.31;;;13.39;90.48
69971;BME280;57301;50.328;8.542;2023-06-10T00:06:44;98326.25;;;13.42;90.08
69971;BME280;57301;50.328;8.542;2023-06-10T00:09:11;98333.41;;;13.50;89.39
69971;BME280;57301;50.328;8.542;2023-06-10T00:11:37;98336.88;;;13.19;90.30
69971;BME280;57301;50.328;8.542;2023-06-10T00:14:04;98325.69;;;13.24;89.92
69971;BME280;57301;50.328;8.542;2023-06-10T00:16:31;98329.31;;;13.31;89.75
69971;BME280;57301;50.328;8.542;2023-06-10T00:19:00;98329.38;;;13.23;90.48
69971;BME280;57301;50.328;8.542;2023-06-10T00:21:28;98329.75;;;13.03;91.29
69971;BME280;57301;50.328;8.542;2023-06-10T00:23:54;98331.22;;;13.14;91.20
69971;BME280;57301;50.328;8.542;2023-06-10T00:26:22;98327.88;;;13.12;90.80
69971;BME280;57301;50.328;8.542;2023-06-10T00:28:49;98329.91;;;13.10;90.87
69971;BME280;57301;50.328;8.542;2023-06-10T00:31:16;98330.59;;;13.04;90.46
69971;BME280;57301;50.328;8.542;2023-06-10T00:33:43;98325.88;;;13.06;90.47
69971;BME280;57301;50.328;8.542;2023-06-10T00:36:10;98328.25;;;13.01;90.37
69971;BME280;57301;50.328;8.542;2023-06-10T00:38:36;98324.78;;;12.92;91.05
69971;BME280;57301;50.328;8.542;2023-06-10T00:41:03;98330.63;;;12.96;90.94
69971;BME280;57301;50.328;8.542;2023-06-10T00:43:29;98325.81;;;12.83;90.59
69971;BME280;57301;50.328;8.542;2023-06-10T00:45:56;98328.00;;;12.79;90.63
69971;BME280;57301;50.328;8.542;2023-06-10T00:48:23;98329.34;;;12.75;91.00
69971;BME280;57301;50.328;8.542;2023-06-10T00:50:49;98328.31;;;12.76;90.70
69971;BME280;57301;50.328;8.542;2023-06-10T00:53:16;98332.31;;;12.88;90.63
69971;BME280;57301;50.328;8.542;2023-06-10T00:55:43;98333.00;;;12.90;89.78
69971;BME280;57301;50.328;8.542;2023-06-10T00:58:10;98329.53;;;12.74;91.04
69971;BME280;57301;50.328;8.542;2023-06-10T01:00:37;98333.53;;;12.70;91.47
69971;BME280;57301;50.328;8.542;2023-06-10T01:03:03;98326.84;;;12.74;90.76
69971;BME280;57301;50.328;8.542;2023-06-10T01:05:35;98323.84;;;12.77;91.04
69971;BME280;57301;50.328;8.542;2023-06-10T01:08:28;98337.38;;;12.75;91.23
69971;BME280;57301;50.328;8.542;2023-06-10T01:11:00;98337.03;;;12.78;90.87
69971;BME280;57301;50.328;8.542;2023-06-10T01:13:29;98339.25;;;12.67;91.07
69971;BME280;57301;50.328;8.542;2023-06-10T01:15:56;98336.75;;;12.57;91.78
69971;BME280;57301;50.328;8.542;2023-06-10T01:18:23;98341.81;;;12.35;93.53
69971;BME280;57301;50.328;8.542;2023-06-10T01:20:49;98336.09;;;12.47;92.96
69971;BME280;57301;50.328;8.542;2023-06-10T01:23:17;98334.28;;;12.47;92.55
69971;BME280;57301;50.328;8.542;2023-06-10T01:25:48;98338.94;;;12.53;92.25
69971;BME280;57301;50.328;8.542;2023-06-10T01:28:20;98339.94;;;12.44;92.34
69971;BME280;57301;50.328;8.542;2023-06-10T01:30:55;98334.63;;;12.36;91.43
69971;BME280;57301;50.328;8.542;2023-06-10T01:33:28;98334.28;;;12.31;92.46
69971;BME280;57301;50.328;8.542;2023-06-10T01:35:59;98340.47;;;12.31;92.58
69971;BME280;57301;50.328;8.542;2023-06-10T01:38:31;98345.81;;;12.31;92.65
69971;BME280;57301;50.328;8.542;2023-06-10T01:40:59;98348.31;;;12.41;92.59
69971;BME280;57301;50.328;8.542;2023-06-10T01:43:26;98346.50;;;12.17;92.49
69971;BME280;57301;50.328;8.542;2023-06-10T01:45:53;98346.81;;;12.14;92.56
69971;BME280;57301;50.328;8.542;2023-06-10T01:48:19;98340.47;;;12.15;92.14
69971;BME280;57301;50.328;8.542;2023-06-10T01:50:46;98343.66;;;12.10;92.56
69971;BME280;57301;50.328;8.542;2023-06-10T01:53:12;98343.50;;;12.04;92.71
69971;BME280;57301;50.328;8.542;2023-06-10T01:55:39;98341.78;;;11.95;93.54
69971;BME280;57301;50.328;8.542;2023-06-10T01:58:05;98346.47;;;11.93;93.92
69971;BME280;57301;50.328;8.542;2023-06-10T02:00:32;98355.50;;;12.00;93.72
69971;BME280;57301;50.328;8.542;2023-06-10T02:02:59;98345.97;;;11.81;94.10
69971;BME280;57301;50.328;8.542;2023-06-10T02:05:25;98353.59;;;11.76;94.20
69971;BME280;57301;50.328;8.542;2023-06-10T02:07:52;98347.25;;;11.61;94.31
69971;BME280;57301;50.328;8.542;2023-06-10T02:10:18;98343.41;;;11.71;93.79
69971;BME280;57301;50.328;8.542;2023-06-10T02:12:45;98350.41;;;11.64;94.49
69971;BME280;57301;50.328;8.542;2023-06-10T02:15:12;98351.09;;;11.66;94.89
69971;BME280;57301;50.328;8.542;2023-06-10T02:17:38;98351.75;;;11.68;94.84
69971;BME280;57301;50.328;8.542;2023-06-10T02:20:05;98356.00;;;11.87;95.18
69971;BME280;57301;50.328;8.542;2023-06-10T02:22:33;98356.81;;;11.88;94.29
69971;BME280;57301;50.328;8.542;2023-06-10T02:25:00;98354.31;;;11.94;93.74
69971;BME280;57301;50.328;8.542;2023-06-10T02:27:26;98354.16;;;11.96;93.23
69971;BME280;57301;50.328;8.542;2023-06-10T02:29:53;98349.50;;;11.98;93.43
69971;BME280;57301;50.328;8.542;2023-06-10T02:32:20;98355.78;;;11.72;93.12
69971;BME280;57301;50.328;8.542;2023-06-10T02:34:46;98349.56;;;11.72;93.56
69971;BME280;57301;50.328;8.542;2023-06-10T02:37:14;98361.97;;;11.73;93.13
69971;BME280;57301;50.328;8.542;2023-06-10T02:39:41;98363.66;;;11.82;92.99
69971;BME280;57301;50.328;8.542;2023-06-10T02:42:08;98360.91;;;11.66;93.47
69971;BME280;57301;50.328;8.542;2023-06-10T02:44:34;98363.44;;;11.67;93.06
69971;BME280;57301;50.328;8.542;2023-06-10T02:47:01;98365.94;;;11.61;93.98
69971;BME280;57301;50.328;8.542;2023-06-10T02:49:27;98364.53;;;11.40;93.40
69971;BME280;57301;50.328;8.542;2023-06-10T02:51:54;98360.84;;;11.33;94.59
69971;BME280;57301;50.328;8.542;2023-06-10T02:54:20;98367.91;;;11.42;94.61
69971;BME280;57301;50.328;8.542;2023-06-10T02:56:47;98366.09;;;11.59;94.89
69971;BME280;57301;50.328;8.542;2023-06-10T02:59:14;98360.72;;;11.51;94.26
69971;BME280;57301;50.328;8.542;2023-06-10T03:01:41;98363.75;;;11.48;94.26
69971;BME280;57301;50.328;8.542;2023-06-10T03:04:07;98372.06;;;11.45;93.90
69971;BME280;57301;50.328;8.542;2023-06-10T03:06:35;98361.75;;;11.58;93.52
69971;BME280;57301;50.328;8.542;2023-06-10T03:09:02;98361.75;;;11.58;92.89
69971;BME280;57301;50.328;8.542;2023-06-10T03:11:33;98361.56;;;11.60;93.21
69971;BME280;57301;50.328;8.542;2023-06-10T03:14:00;98362.38;;;11.44;93.10
69971;BME280;57301;50.328;8.542;2023-06-10T03:16:26;98369.22;;;11.46;93.30
69971;BME280;57301;50.328;8.542;2023-06-10T03:18:53;98358.88;;;11.43;92.74
69971;BME280;57301;50.328;8.542;2023-06-10T03:21:20;98365.06;;;11.44;93.15
69971;BME280;57301;50.328;8.542;2023-06-10T03:23:46;98364.22;;;11.43;93.45
69971;BME280;57301;50.328;8.542;2023-06-10T03:26:13;98376.22;;;11.39;93.86
69971;BME280;57301;50.328;8.542;2023-06-10T03:28:41;98370.69;;;11.33;93.57
69971;BME280;57301;50.328;8.542;2023-06-10T03:31:08;98369.72;;;11.42;93.07
69971;BME280;57301;50.328;8.542;2023-06-10T03:33:34;98374.91;;;11.09;92.92
69971;BME280;57301;50.328;8.542;2023-06-10T03:36:02;98381.81;;;11.20;92.66
69971;BME280;57301;50.328;8.542;2023-06-10T03:38:28;98369.59;;;11.09;93.16
69971;BME280;57301;50.328;8.542;2023-06-10T03:40:55;98374.91;;;11.01;93.60
69971;BME280;57301;50.328;8.542;2023-06-10T03:43:22;98378.78;;;11.15;93.63
69971;BME280;57301;50.328;8.542;2023-06-10T03:45:48;98377.53;;;11.35;93.44
69971;BME280;57301;50.328;8.542;2023-06-10T03:48:15;98387.34;;;11.26;93.44
69971;BME280;57301;50.328;8.542;2023-06-10T03:50:43;98390.69;;;11.28;93.09
69971;BME280;57301;50.328;8.542;2023-06-10T03:53:09;98387.53;;;11.33;93.57
69971;BME280;57301;50.328;8.542;2023-06-10T03:55:36;98383.91;;;11.42;94.22
69971;BME280;57301;50.328;8.542;2023-06-10T03:58:02;98383.84;;;11.84;92.51
69971;BME280;57301;50.328;8.542;2023-06-10T04:00:29;98386.91;;;11.98;90.11
69971;BME280;57301;50.328;8.542;2023-06-10T04:02:56;98385.69;;;11.84;89.96
69971;BME280;57301;50.328;8.542;2023-06-10T04:05:24;98388.28;;;11.60;91.33
69971;BME280;57301;50.328;8.542;2023-06-10T04:07:50;98383.16;;;11.66;91.46
69971;BME280;57301;50.328;8.542;2023-06-10T04:10:17;98384.81;;;11.75;91.37
69971;BME280;57301;50.328;8.542;2023-06-10T04:12:43;98389.00;;;11.78;91.44
69971;BME280;57301;50.328;8.542;2023-06-10T04:15:10;98387.66;;;11.74;91.65
69971;BME280;57301;50.328;8.542;2023-06-10T04:17:37;98394.06;;;11.81;91.51
69971;BME280;57301;50.328;8.542;2023-06-10T04:20:04;98387.16;;;11.78;91.42
69971;BME280;57301;50.328;8.542;2023-06-10T04:22:33;98390.34;;;11.74;91.67
69971;BME280;57301;50.328;8.542;2023-06-10T04:25:00;98396.56;;;11.82;91.63
69971;BME280;57301;50.328;8.542;2023-06-10T04:27:27;98394.75;;;11.91;90.80
69971;BME280;57301;50.328;8.542;2023-06-10T04:29:53;98395.41;;;12.01;91.18
69971;BME280;57301;50.328;8.542;2023-06-10T04:32:20;98402.91;;;11.90;91.41
69971;BME280;57301;50.328;8.542;2023-06-10T04:34:46;98406.94;;;11.94;91.60
69971;BME280;57301;50.328;8.542;2023-06-10T04:37:13;98401.44;;;12.03;91.40
69971;BME280;57301;50.328;8.542;2023-06-10T04:39:39;98396.75;;;12.14;91.74
69971;BME280;57301;50.328;8.542;2023-06-10T04:42:06;98401.78;;;12.33;91.23
69971;BME280;57301;50.328;8.542;2023-06-10T04:44:33;98402.63;;;12.33;91.69
69971;BME280;57301;50.328;8.542;2023-06-10T04:47:00;98396.94;;;12.53;91.07
69971;BME280;57301;50.328;8.542;2023-06-10T04:49:27;98402.94;;;12.63;90.99
69971;BME280;57301;50.328;8.542;2023-06-10T04:51:55;98399.09;;;12.57;91.88
69971;BME280;57301;50.328;8.542;2023-06-10T04:54:21;98392.56;;;12.84;90.96
69971;BME280;57301;50.328;8.542;2023-06-10T04:56:48;98393.41;;;12.77;91.73
69971;BME280;57301;50.328;8.542;2023-06-10T04:59:14;98384.47;;;13.01;90.60
69971;BME280;57301;50.328;8.542;2023-06-10T05:01:41;98385.16;;;13.03;90.66
69971;BME280;57301;50.328;8.542;2023-06-10T05:04:07;98387.59;;;13.12;91.61
69971;BME280;57301;50.328;8.542;2023-06-10T05:06:34;98381.56;;;13.18;90.95
69971;BME280;57301;50.328;8.542;2023-06-10T05:09:02;98385.06;;;13.35;89.78
69971;BME280;57301;50.328;8.542;2023-06-10T05:11:29;98394.72;;;13.44;89.46
69971;BME280;57301;50.328;8.542;2023-06-10T05:13:55;98395.50;;;13.84;87.92
69971;BME280;57301;50.328;8.542;2023-06-10T05:16:21;98395.16;;;14.10;87.30
69971;BME280;57301;50.328;8.542;2023-06-10T05:18:48;98386.28;;;14.33;86.88
69971;BME280;57301;50.328;8.542;2023-06-10T05:21:14;98387.47;;;14.53;86.25
69971;BME280;57301;50.328;8.542;2023-06-10T05:23:41;98394.13;;;14.95;85.87
69971;BME280;57301;50.328;8.542;2023-06-10T05:26:08;98388.56;;;15.26;84.29
69971;BME280;57301;50.328;8.542;2023-06-10T05:28:35;98385.88;;;15.41;84.22
69971;BME280;57301;50.328;8.542;2023-06-10T05:31:01;98397.53;;;15.63;83.43
69971;BME280;57301;50.328;8.542;2023-06-10T05:33:28;98393.28;;;15.90;81.58
69971;BME280;57301;50.328;8.542;2023-06-10T05:35:54;98400.94;;;16.07;79.05
69971;BME280;57301;50.328;8.542;2023-06-10T05:38:21;98399.22;;;16.43;77.80
69971;BME280;57301;50.328;8.542;2023-06-10T05:40:47;98398.09;;;16.80;78.14
69971;BME280;57301;50.328;8.542;2023-06-10T05:43:13;98401.44;;;17.10;75.08
69971;BME280;57301;50.328;8.542;2023-06-10T05:45:42;98392.53;;;17.51;73.78
69971;BME280;57301;50.328;8.542;2023-06-10T05:48:09;98404.72;;;17.40;74.35
69971;BME280;57301;50.328;8.542;2023-06-10T05:50:36;98405.03;;;17.65;74.10
69971;BME280;57301;50.328;8.542;2023-06-10T05:53:05;98400.84;;;18.10;73.27
69971;BME280;57301;50.328;8.542;2023-06-10T05:55:33;98403.25;;;18.73;71.13
69971;BME280;57301;50.328;8.542;2023-06-10T05:58:00;98397.38;;;19.02;68.07
69971;BME280;57301;50.328;8.542;2023-06-10T06:00:27;98404.59;;;19.42;67.10
69971;BME280;57301;50.328;8.542;2023-06-10T06:02:54;98402.13;;;19.27;67.94
69971;BME280;57301;50.328;8.542;2023-06-10T06:05:21;98402.28;;;19.39;68.76
69971;BME280;57301;50.328;8.542;2023-06-10T06:07:47;98398.81;;;20.28;65.24
69971;BME280;57301;50.328;8.542;2023-06-10T06:10:14;98394.16;;;20.35;62.47
69971;BME280;57301;50.328;8.542;2023-06-10T06:12:40;98400.47;;;19.91;64.60
69971;BME280;57301;50.328;8.542;2023-06-10T06:15:07;98406.16;;;20.21;65.68
69971;BME280;57301;50.328;8.542;2023-06-10T06:17:35;98400.75;;;20.52;63.71
69971;BME280;57301;50.328;8.542;2023-06-10T06:20:02;98396.28;;;20.64;63.36
69971;BME280;57301;50.328;8.542;2023-06-10T06:22:29;98397.28;;;20.70;63.71
69971;BME280;57301;50.328;8.542;2023-06-10T06:24:56;98393.81;;;21.50;61.24
69971;BME280;57301;50.328;8.542;2023-06-10T06:27:22;98400.00;;;21.13;61.75
69971;BME280;57301;50.328;8.542;2023-06-10T06:29:49;98400.69;;;22.00;57.67
69971;BME280;57301;50.328;8.542;2023-06-10T06:32:17;98387.47;;;22.22;56.53
69971;BME280;57301;50.328;8.542;2023-06-10T06:34:44;98388.22;;;21.81;55.86
69971;BME280;57301;50.328;8.542;2023-06-10T06:37:10;98387.81;;;22.68;51.23
69971;BME280;57301;50.328;8.542;2023-06-10T06:39:37;98395.50;;;22.83;51.94
69971;BME280;57301;50.328;8.542;2023-06-10T06:42:03;98391.66;;;23.02;50.79
69971;BME280;57301;50.328;8.542;2023-06-10T06:44:30;98393.53;;;23.25;49.69
69971;BME280;57301;50.328;8.542;2023-06-10T06:46:56;98399.25;;;22.70;51.07
69971;BME280;57301;50.328;8.542;2023-06-10T06:49:23;98393.88;;;23.17;47.46
69971;BME280;57301;50.328;8.542;2023-06-10T06:51:49;98398.72;;;23.38;48.77
69971;BME280;57301;50.328;8.542;2023-06-10T06:54:16;98401.09;;;24.27;46.25
69971;BME280;57301;50.328;8.542;2023-06-10T06:56:42;98402.25;;;24.02;46.98
69971;BME280;57301;50.328;8.542;2023-06-10T06:59:09;98398.28;;;24.22;47.68
69971;BME280;57301;50.328;8.542;2023-06-10T07:01:36;98408.28;;;24.78;46.47
69971;BME280;57301;50.328;8.542;2023-06-10T07:04:02;98406.97;;;24.64;46.98
69971;BME280;57301;50.328;8.542;2023-06-10T07:06:29;98406.19;;;24.23;46.77
69971;BME280;57301;50.328;8.542;2023-06-10T07:08:55;98395.94;;;24.13;48.22
69971;BME280;57301;50.328;8.542;2023-06-10T07:11:23;98403.72;;;23.81;48.85
69971;BME280;57301;50.328;8.542;2023-06-10T07:13:49;98404.31;;;24.69;45.50
69971;BME280;57301;50.328;8.542;2023-06-10T07:16:16;98408.59;;;25.32;45.55
69971;BME280;57301;50.328;8.542;2023-06-10T07:18:42;98394.50;;;26.01;44.18
69971;BME280;57301;50.328;8.542;2023-06-10T07:21:09;98403.41;;;24.97;45.96
69971;BME280;57301;50.328;8.542;2023-06-10T07:23:36;98409.66;;;24.47;47.58
69971;BME280;57301;50.328;8.542;2023-06-10T07:26:02;98406.91;;;25.87;44.44
69971;BME280;57301;50.328;8.542;2023-06-10T07:28:29;98396.06;;;25.14;45.41
69971;BME280;57301;50.328;8.542;2023-06-10T07:30:55;98398.84;;;25.36;44.79
69971;BME280;57301;50.328;8.542;2023-06-10T07:33:22;98408.94;;;25.58;45.82
69971;BME280;57301;50.328;8.542;2023-06-10T07:35:48;98410.44;;;24.76;45.12
69971;BME280;57301;50.328;8.542;2023-06-10T07:38:16;98421.38;;;25.10;47.41
69971;BME280;57301;50.328;8.542;2023-06-10T07:40:43;98411.81;;;26.93;42.54
69971;BME280;57301;50.328;8.542;2023-06-10T07:43:10;98415.53;;;27.09;42.69
69971;BME280;57301;50.328;8.542;2023-06-10T07:45:36;98409.28;;;26.86;41.60
69971;BME280;57301;50.328;8.542;2023-06-10T07:48:03;98412.13;;;26.96;42.07
69971;BME280;57301;50.328;8.542;2023-06-10T07:50:35;98407.16;;;26.93;42.40
69971;BME280;57301;50.328;8.542;2023-06-10T07:53:12;98411.00;;;27.29;40.71
69971;BME280;57301;50.328;8.542;2023-06-10T07:55:39;98409.19;;;26.44;42.70
69971;BME280;57301;50.328;8.542;2023-06-10T07:58:05;98407.94;;;26.30;41.34
69971;BME280;57301;50.328;8.542;2023-06-10T08:00:32;98408.19;;;27.14;42.05
69971;BME280;57301;50.328;8.542;2023-06-10T08:02:58;98402.63;;;26.72;41.84
69971;BME280;57301;50.328;8.542;2023-06-10T08:05:25;98404.59;;;26.82;42.04
69971;BME280;57301;50.328;8.542;2023-06-10T08:07:52;98398.31;;;26.81;42.83
69971;BME280;57301;50.328;8.542;2023-06-10T08:10:19;98396.16;;;27.68;39.96
69971;BME280;57301;50.328;8.542;2023-06-10T08:12:45;98397.69;;;28.11;38.83
69971;BME280;57301;50.328;8.542;2023-06-10T08:15:12;98400.53;;;28.42;37.31
69971;BME280;57301;50.328;8.542;2023-06-10T08:17:38;98395.09;;;28.62;36.34
69971;BME280;57301;50.328;8.542;2023-06-10T08:20:06;98385.72;;;27.65;40.22
69971;BME280;57301;50.328;8.542;2023-06-10T08:22:33;98395.00;;;28.21;39.22
69971;BME280;57301;50.328;8.542;2023-06-10T08:25:00;98398.13;;;27.72;40.18
69971;BME280;57301;50.328;8.542;2023-06-10T08:27:26;98397.81;;;28.36;38.04
69971;BME280;57301;50.328;8.542;2023-06-10T08:29:53;98399.81;;;27.83;38.36
69971;BME280;57301;50.328;8.542;2023-06-10T08:32:20;98400.97;;;27.45;41.38
69971;BME280;57301;50.328;8.542;2023-06-10T08:34:46;98395.34;;;28.40;39.59
69971;BME280;57301;50.328;8.542;2023-06-10T08:37:13;98394.63;;;27.92;39.88
69971;BME280;57301;50.328;8.542;2023-06-10T08:39:40;98401.41;;;28.62;38.84
69971;BME280;57301;50.328;8.542;2023-06-10T08:44:35;98401.75;;;27.88;39.06
69971;BME280;57301;50.328;8.542;2023-06-10T08:47:15;98396.09;;;28.15;37.73
69971;BME280;57301;50.328;8.542;2023-06-10T08:49:45;98399.03;;;27.41;39.35
69971;BME280;57301;50.328;8.542;2023-06-10T08:52:17;98396.53;;;27.87;38.18
69971;BME280;57301;50.328;8.542;2023-06-10T08:54:58;98397.13;;;27.99;37.83
69971;BME280;57301;50.328;8.542;2023-06-10T08:57:26;98394.78;;;28.33;36.81
69971;BME280;57301;50.328;8.542;2023-06-10T08:59:53;98392.06;;;28.53;36.85
69971;BME280;57301;50.328;8.542;2023-06-10T09:02:27;98391.56;;;27.78;38.07
69971;BME280;57301;50.328;8.542;2023-06-10T09:04:56;98395.06;;;28.42;38.87
69971;BME280;57301;50.328;8.542;2023-06-10T09:07:23;98385.41;;;28.19;38.65
69971;BME280;57301;50.328;8.542;2023-06-10T09:09:49;98387.69;;;28.78;36.01
69971;BME280;57301;50.328;8.542;2023-06-10T09:12:16;98385.19;;;28.41;36.64
69971;BME280;57301;50.328;8.542;2023-06-10T09:14:43;98384.13;;;29.18;36.47
69971;BME280;57301;50.328;8.542;2023-06-10T09:17:10;98381.66;;;29.01;37.99
69971;BME280;57301;50.328;8.542;2023-06-10T09:19:38;98376.94;;;29.32;37.22
69971;BME280;57301;50.328;8.542;2023-06-10T09:22:05;98380.28;;;28.73;36.54
69971;BME280;57301;50.328;8.542;2023-06-10T09:24:32;98384.13;;;29.18;37.61
69971;BME280;57301;50.328;8.542;2023-06-10T09:27:03;98386.56;;;28.79;37.24
69971;BME280;57301;50.328;8.542;2023-06-10T09:29:37;98380.84;;;28.96;35.75
69971;BME280;57301;50.328;8.542;2023-06-10T09:32:12;98375.59;;;28.84;34.64
69971;BME280;57301;50.328;8.542;2023-06-10T09:34:39;98367.13;;;28.85;35.93
69971;BME280;57301;50.328;8.542;2023-06-10T09:37:06;98382.19;;;29.13;36.43
69971;BME280;57301;50.328;8.542;2023-06-10T09:39:32;98380.00;;;28.70;37.16
69971;BME280;57301;50.328;8.542;2023-06-10T09:41:59;98377.22;;;29.26;37.60
69971;BME280;57301;50.328;8.542;2023-06-10T09:44:26;98375.06;;;28.97;34.97
69971;BME280;57301;50.328;8.542;2023-06-10T09:46:53;98378.38;;;28.48;36.18
69971;BME280;57301;50.328;8.542;2023-06-10T09:49:21;98378.63;;;28.82;34.99
69971;BME280;57301;50.328;8.542;2023-06-10T09:51:51;98378.09;;;28.70;37.35
69971;BME280;57301;50.328;8.542;2023-06-10T09:54:19;98378.31;;;28.33;37.01
69971;BME280;57301;50.328;8.542;2023-06-10T09:56:48;98365.44;;;28.54;37.89
69971;BME280;57301;50.328;8.542;2023-06-10T09:59:15;98369.81;;;28.90;36.26
69971;BME280;57301;50.328;8.542;2023-06-10T10:01:46;98374.22;;;28.71;37.21
69971;BME280;57301;50.328;8.542;2023-06-10T10:04:24;98374.50;;;28.90;36.86
69971;BME280;57301;50.328;8.542;2023-06-10T10:06:52;98367.09;;;28.60;37.32
69971;BME280;57301;50.328;8.542;2023-06-10T10:09:19;98355.84;;;28.56;36.98
69971;BME280;57301;50.328;8.542;2023-06-10T10:11:45;98358.31;;;29.09;38.66
69971;BME280;57301;50.328;8.542;2023-06-10T10:14:14;98356.41;;;28.99;37.74
69971;BME280;57301;50.328;8.542;2023-06-10T10:16:43;98353.63;;;29.20;37.52
69971;BME280;57301;50.328;8.542;2023-06-10T10:19:15;98358.88;;;29.06;37.60
69971;BME280;57301;50.328;8.542;2023-06-10T10:21:50;98349.53;;;29.12;36.43
69971;BME280;57301;50.328;8.542;2023-06-10T10:24:21;98345.16;;;29.06;36.46
69971;BME280;57301;50.328;8.542;2023-06-10T10:26:50;98346.78;;;29.12;38.42
69971;BME280;57301;50.328;8.542;2023-06-10T10:29:33;98340.00;;;29.74;36.05
69971;BME280;57301;50.328;8.542;2023-06-10T10:32:03;98348.34;;;29.54;36.12
69971;BME280;57301;50.328;8.542;2023-06-10T10:35:21;98335.41;;;29.44;35.76
69971;BME280;57301;50.328;8.542;2023-06-10T10:37:23;98336.25;;;29.55;35.71
69971;BME280;57301;50.328;8.542;2023-06-10T10:39:50;98337.06;;;29.55;36.24
69971;BME280;57301;50.328;8.542;2023-06-10T10:42:17;98343.38;;;29.45;34.98
69971;BME280;57301;50.328;8.542;2023-06-10T10:44:45;98358.06;;;29.10;37.37
69971;BME280;57301;50.328;8.542;2023-06-10T10:47:13;98344.56;;;29.19;36.83
69971;BME280;57301;50.328;8.542;2023-06-10T10:49:43;98349.25;;;28.88;37.56
69971;BME280;57301;50.328;8.542;2023-06-10T10:52:13;98336.38;;;29.04;35.85
69971;BME280;57301;50.328;8.542;2023-06-10T10:54:44;98337.97;;;29.20;35.89
69971;BME280;57301;50.328;8.542;2023-06-10T10:57:18;98330.34;;;29.82;34.72
69971;BME280;57301;50.328;8.542;2023-06-10T10:59:52;98340.47;;;29.91;34.96
69971;BME280;57301;50.328;8.542;2023-06-10T11:04:58;98320.81;;;30.13;35.13
69971;BME280;57301;50.328;8.542;2023-06-10T11:07:25;98323.53;;;30.18;32.19
69971;BME280;57301;50.328;8.542;2023-06-10T11:10:12;98316.44;;;30.07;31.69
69971;BME280;57301;50.328;8.542;2023-06-10T11:15:13;98308.91;;;29.79;29.50
69971;BME280;57301;50.328;8.542;2023-06-10T11:31:38;98309.97;;;29.13;28.96
69971;BME280;57301;50.328;8.542;2023-06-10T11:34:06;98311.41;;;28.34;30.07
69971;BME280;57301;50.328;8.542;2023-06-10T11:36:36;98313.19;;;27.77;30.14
69971;BME280;57301;50.328;8.542;2023-06-10T11:39:04;98308.66;;;28.39;31.10
69971;BME280;57301;50.328;8.542;2023-06-10T11:41:35;98308.59;;;28.08;30.26
69971;BME280;57301;50.328;8.542;2023-06-10T11:44:11;98310.56;;;28.54;30.61
69971;BME280;57301;50.328;8.542;2023-06-10T11:46:40;98311.31;;;29.15;31.78
69971;BME280;57301;50.328;8.542;2023-06-10T11:49:09;98308.44;;;29.66;30.39
69971;BME280;57301;50.328;8.542;2023-06-10T11:51:37;98303.41;;;29.79;28.94
69971;BME280;57301;50.328;8.542;2023-06-10T11:54:05;98305.72;;;30.11;28.78
69971;BME280;57301;50.328;8.542;2023-06-10T11:56:32;98308.47;;;29.56;30.37
69971;BME280;57301;50.328;8.542;2023-06-10T11:58:59;98300.34;;;29.85;31.83
69971;BME280;57301;50.328;8.542;2023-06-10T12:01:32;98299.56;;;30.24;29.91
69971;BME280;57301;50.328;8.542;2023-06-10T12:04:10;98296.53;;;29.81;31.81
69971;BME280;57301;50.328;8.542;2023-06-10T12:09:13;98300.22;;;29.51;30.99
69971;BME280;57301;50.328;8.542;2023-06-10T12:12:01;98296.78;;;29.85;29.28
69971;BME280;57301;50.328;8.542;2023-06-10T12:20:02;98277.91;;;30.52;28.34
69971;BME280;57301;50.328;8.542;2023-06-10T12:22:42;98298.47;;;28.85;31.06
69971;BME280;57301;50.328;8.542;2023-06-10T12:25:10;98295.31;;;29.53;30.01
69971;BME280;57301;50.328;8.542;2023-06-10T12:27:40;98280.91;;;30.50;29.42
69971;BME280;57301;50.328;8.542;2023-06-10T12:30:07;98284.94;;;30.34;28.85
69971;BME280;57301;50.328;8.542;2023-06-10T12:32:42;98289.06;;;30.31;30.80
69971;BME280;57301;50.328;8.542;2023-06-10T12:35:11;98289.91;;;29.82;29.85
69971;BME280;57301;50.328;8.542;2023-06-10T12:37:40;98288.28;;;29.76;30.04
69971;BME280;57301;50.328;8.542;2023-06-10T12:40:10;98282.72;;;30.31;29.08
69971;BME280;57301;50.328;8.542;2023-06-10T12:42:38;98279.34;;;29.50;30.83
69971;BME280;57301;50.328;8.542;2023-06-10T12:45:05;98285.06;;;28.69;31.01
69971;BME280;57301;50.328;8.542;2023-06-10T12:47:36;98274.44;;;29.42;30.89
69971;BME280;57301;50.328;8.542;2023-06-10T12:50:05;98277.66;;;30.09;31.28
69971;BME280;57301;50.328;8.542;2023-06-10T12:52:32;98269.91;;;30.50;30.63
69971;BME280;57301;50.328;8.542;2023-06-10T12:54:59;98283.41;;;30.07;31.53
69971;BME280;57301;50.328;8.542;2023-06-10T12:57:27;98270.25;;;30.43;30.73
69971;BME280;57301;50.328;8.542;2023-06-10T12:59:53;98273.53;;;31.03;29.98
69971;BME280;57301;50.328;8.542;2023-06-10T13:02:20;98273.22;;;30.52;31.49
69971;BME280;57301;50.328;8.542;2023-06-10T13:04:50;98271.28;;;30.53;30.70
69971;BME280;57301;50.328;8.542;2023-06-10T13:07:18;98272.63;;;30.55;29.97
69971;BME280;57301;50.328;8.542;2023-06-10T13:09:44;98273.72;;;29.76;31.94
69971;BME280;57301;50.328;8.542;2023-06-10T13:12:11;98274.03;;;29.04;32.82
69971;BME280;57301;50.328;8.542;2023-06-10T13:14:42;98278.22;;;30.11;32.42
69971;BME280;57301;50.328;8.542;2023-06-10T13:17:08;98268.56;;;30.13;31.78
69971;BME280;57301;50.328;8.542;2023-06-10T13:19:35;98265.69;;;30.92;31.17
69971;BME280;57301;50.328;8.542;2023-06-10T13:22:01;98259.25;;;31.01;30.38
69971;BME280;57301;50.328;8.542;2023-06-10T13:24:28;98265.38;;;31.17;30.45
69971;BME280;57301;50.328;8.542;2023-06-10T13:26:55;98264.78;;;31.25;30.34
69971;BME280;57301;50.328;8.542;2023-06-10T13:29:22;98258.16;;;31.26;29.35
69971;BME280;57301;50.328;8.542;2023-06-10T13:31:49;98256.25;;;31.46;30.20
69971;BME280;57301;50.328;8.542;2023-06-10T13:34:15;98254.66;;;31.82;29.73